createdAt,value
2019-06-27T00:00:27.034Z,12.43
2019-06-27T00:02:57.324Z,12.40
2019-06-27T00:05:27.665Z,12.77
2019-06-27T00:07:58.013Z,13.33
2019-06-27T00:10:28.426Z,12.93
2019-06-27T00:12:58.767Z,13.97
2019-06-27T00:15:29.180Z,13.23
2019-06-27T00:17:59.518Z,13.07
2019-06-27T00:20:29.896Z,14.37
2019-06-27T00:23:00.294Z,14.50
2019-06-27T00:25:32.091Z,14.60
2019-06-27T00:28:02.441Z,14.80
2019-06-27T00:30:32.795Z,15.07
2019-06-27T00:33:03.196Z,14.83
2019-06-27T00:35:33.557Z,14.90
2019-06-27T00:38:03.882Z,16.80
2019-06-27T00:40:34.245Z,15.97
2019-06-27T00:43:04.644Z,16.83
2019-06-27T00:45:34.984Z,16.20
2019-06-27T00:48:05.354Z,16.00
2019-06-27T00:50:35.723Z,17.03
2019-06-27T00:53:06.070Z,17.20
2019-06-27T00:55:36.463Z,16.53
2019-06-27T00:58:06.793Z,16.57
2019-06-27T01:00:37.182Z,16.63
2019-06-27T01:03:08.109Z,18.20
2019-06-27T01:05:38.479Z,18.03
2019-06-27T01:08:08.927Z,18.27
2019-06-27T01:10:39.343Z,19.07
2019-06-27T01:13:09.791Z,18.70
2019-06-27T01:15:40.146Z,18.53
2019-06-27T01:18:10.517Z,18.93
2019-06-27T01:20:40.839Z,19.00
2019-06-27T01:23:11.248Z,17.93
2019-06-27T01:25:41.595Z,19.77
2019-06-27T01:28:11.971Z,20.23
2019-06-27T01:30:42.308Z,18.70
2019-06-27T01:33:12.678Z,19.83
2019-06-27T01:35:43.037Z,19.30
2019-06-27T01:38:13.482Z,19.50
2019-06-27T01:40:43.809Z,20.63
2019-06-27T01:43:14.199Z,19.17
2019-06-27T01:45:52.042Z,19.07
2019-06-27T01:48:22.537Z,20.07
2019-06-27T01:50:52.911Z,20.30
2019-06-27T01:53:23.279Z,19.67
2019-06-27T01:55:53.613Z,21.20
2019-06-27T01:58:23.964Z,19.93
2019-06-27T02:00:54.300Z,19.27
2019-06-27T02:03:24.667Z,19.83
2019-06-27T02:05:55.096Z,19.60
2019-06-27T02:08:25.477Z,19.97
2019-06-27T02:10:55.852Z,19.60
2019-06-27T02:13:26.248Z,20.40
2019-06-27T02:15:56.649Z,19.80
2019-06-27T02:18:26.999Z,20.23
2019-06-27T02:20:57.324Z,20.17
2019-06-27T02:23:27.726Z,19.77
2019-06-27T02:25:58.044Z,19.83
2019-06-27T02:28:28.412Z,19.50
2019-06-27T02:30:58.744Z,21.63
2019-06-27T02:33:29.111Z,20.80
2019-06-27T02:35:59.462Z,20.70
2019-06-27T02:38:29.936Z,19.97
2019-06-27T02:41:00.399Z,21.17
2019-06-27T02:43:31.911Z,20.53
2019-06-27T02:46:02.233Z,19.83
2019-06-27T02:48:32.591Z,17.40
2019-06-27T02:51:02.924Z,19.43
2019-06-27T02:53:33.311Z,19.23
2019-06-27T02:56:03.761Z,20.27
2019-06-27T02:58:35.276Z,19.77
2019-06-27T03:01:05.604Z,20.87
2019-06-27T03:03:35.983Z,19.90
2019-06-27T03:06:06.454Z,20.30
2019-06-27T03:08:36.960Z,20.20
2019-06-27T03:11:07.304Z,20.93
2019-06-27T03:13:37.649Z,21.63
2019-06-27T03:16:07.963Z,21.37
2019-06-27T03:18:38.427Z,20.30
2019-06-27T03:21:08.786Z,21.07
2019-06-27T03:23:39.214Z,20.90
2019-06-27T03:26:09.543Z,20.00
2019-06-27T03:28:52.303Z,19.60
2019-06-27T03:31:11.854Z,20.53
2019-06-27T03:33:42.233Z,20.70
2019-06-27T03:36:12.582Z,20.60
2019-06-27T03:38:42.932Z,20.80
2019-06-27T03:41:13.278Z,19.13
2019-06-27T03:43:43.687Z,19.30
2019-06-27T03:46:14.021Z,21.23
2019-06-27T03:48:44.393Z,20.53
2019-06-27T03:51:14.717Z,20.70
2019-06-27T03:53:45.071Z,19.67
2019-06-27T03:56:15.396Z,20.07
2019-06-27T03:58:45.765Z,19.37
2019-06-27T04:01:16.109Z,20.17
2019-06-27T04:03:46.465Z,20.53
2019-06-27T04:06:16.916Z,19.67
2019-06-27T04:08:47.295Z,19.73
2019-06-27T04:11:17.622Z,19.77
2019-06-27T04:13:48.958Z,20.27
2019-06-27T04:16:19.270Z,19.37
2019-06-27T04:18:49.636Z,21.13
2019-06-27T04:21:19.964Z,19.93
2019-06-27T04:23:50.290Z,19.60
2019-06-27T04:26:20.641Z,19.73
2019-06-27T04:28:50.993Z,20.27
2019-06-27T04:31:21.353Z,23.17
2019-06-27T04:33:51.687Z,27.30
2019-06-27T04:36:22.072Z,19.93
2019-06-27T04:38:52.443Z,18.83
2019-06-27T04:41:22.830Z,19.30
2019-06-27T04:43:54.125Z,20.40
2019-06-27T04:46:25.551Z,18.80
2019-06-27T04:48:55.892Z,19.60
2019-06-27T04:51:29.366Z,19.53
2019-06-27T04:53:59.715Z,19.33
2019-06-27T04:56:30.166Z,19.00
2019-06-27T04:59:00.502Z,19.37
2019-06-27T05:01:30.850Z,19.27
2019-06-27T05:04:01.186Z,18.63
2019-06-27T05:06:31.590Z,19.50
2019-06-27T05:09:01.940Z,19.33
2019-06-27T05:11:32.701Z,19.87
2019-06-27T05:14:03.020Z,20.13
2019-06-27T05:16:33.378Z,18.37
2019-06-27T05:19:03.738Z,18.37
2019-06-27T05:21:34.087Z,18.60
2019-06-27T05:24:04.403Z,18.50
2019-06-27T05:26:34.765Z,18.50
2019-06-27T05:29:05.072Z,18.00
2019-06-27T05:31:35.443Z,17.60
2019-06-27T05:34:05.780Z,19.33
2019-06-27T05:36:36.151Z,18.37
2019-06-27T05:39:06.728Z,18.90
2019-06-27T05:41:37.067Z,19.77
2019-06-27T05:44:07.393Z,18.87
2019-06-27T05:46:37.747Z,18.93
2019-06-27T05:49:08.158Z,18.57
2019-06-27T05:51:38.518Z,17.67
2019-06-27T05:54:08.843Z,18.07
2019-06-27T05:56:39.222Z,19.47
2019-06-27T05:59:09.540Z,19.30
2019-06-27T06:01:39.932Z,18.23
2019-06-27T06:04:11.549Z,18.67
2019-06-27T06:06:41.905Z,18.87
2019-06-27T06:09:12.292Z,18.03
2019-06-27T06:11:42.655Z,19.10
2019-06-27T06:14:12.962Z,19.17
2019-06-27T06:16:43.339Z,18.57
2019-06-27T06:19:13.773Z,18.13
2019-06-27T06:21:44.197Z,18.20
2019-06-27T06:24:15.563Z,17.97
2019-06-27T06:26:45.917Z,17.00
2019-06-27T06:29:16.313Z,18.50
2019-06-27T06:31:49.238Z,18.00
2019-06-27T06:34:18.621Z,17.13
2019-06-27T06:36:48.991Z,18.67
2019-06-27T06:39:19.339Z,18.33
2019-06-27T06:41:49.711Z,17.47
2019-06-27T06:44:20.048Z,17.37
2019-06-27T06:46:50.403Z,17.80
2019-06-27T06:49:20.759Z,16.40
2019-06-27T06:51:51.139Z,16.73
2019-06-27T06:54:22.538Z,17.27
2019-06-27T06:56:52.910Z,17.43
2019-06-27T06:59:23.221Z,17.23
2019-06-27T07:01:53.590Z,17.40
2019-06-27T07:04:23.910Z,17.00
2019-06-27T07:06:54.286Z,16.20
2019-06-27T07:09:24.737Z,16.20
2019-06-27T07:11:55.198Z,16.30
2019-06-27T07:14:27.143Z,17.33
2019-06-27T07:16:58.699Z,16.10
2019-06-27T07:19:29.015Z,16.50
2019-06-27T07:21:59.547Z,15.77
2019-06-27T07:24:29.870Z,15.93
2019-06-27T07:27:00.320Z,15.27
2019-06-27T07:29:30.774Z,14.97
2019-06-27T07:32:01.092Z,16.10
2019-06-27T07:34:31.424Z,14.83
2019-06-27T07:37:01.912Z,15.40
2019-06-27T07:39:32.246Z,15.77
2019-06-27T07:42:02.653Z,15.57
2019-06-27T07:44:33.042Z,15.23
2019-06-27T07:47:03.409Z,15.57
2019-06-27T07:49:36.867Z,15.13
2019-06-27T07:52:07.501Z,15.53
2019-06-27T07:54:37.831Z,15.10
2019-06-27T07:57:08.306Z,13.93
2019-06-27T07:59:38.641Z,14.60
2019-06-27T08:02:09.191Z,13.87
2019-06-27T08:04:39.501Z,13.60
2019-06-27T08:07:09.902Z,15.20
2019-06-27T08:09:40.230Z,15.27
2019-06-27T08:12:10.620Z,12.07
2019-06-27T08:14:40.958Z,14.00
2019-06-27T08:17:11.287Z,16.13
2019-06-27T08:19:42.768Z,15.63
2019-06-27T08:22:13.077Z,14.37
2019-06-27T08:24:45.155Z,14.33
2019-06-27T08:27:18.087Z,15.33
2019-06-27T08:29:56.314Z,14.07
2019-06-27T08:32:28.109Z,13.07
2019-06-27T08:35:12.019Z,12.80
2019-06-27T08:37:47.461Z,14.47
2019-06-27T08:40:17.865Z,13.23
2019-06-27T08:42:48.237Z,12.33
2019-06-27T08:45:19.655Z,13.40
2019-06-27T08:47:50.008Z,13.90
2019-06-27T08:50:20.347Z,13.60
2019-06-27T08:52:50.709Z,12.63
2019-06-27T08:55:21.055Z,14.43
2019-06-27T08:57:51.444Z,13.47
2019-06-27T09:00:21.902Z,12.82
2019-06-27T09:02:52.431Z,14.03
2019-06-27T09:05:22.796Z,13.45
2019-06-27T09:07:53.161Z,13.03
2019-06-27T09:10:23.675Z,15.20
2019-06-27T09:12:54.057Z,13.83
2019-06-27T09:15:24.404Z,14.77
2019-06-27T09:17:54.791Z,14.47
2019-06-27T09:20:25.140Z,15.43
2019-06-27T09:22:55.549Z,15.35
2019-06-27T09:25:25.904Z,11.53
2019-06-27T09:27:57.365Z,13.17
2019-06-27T09:30:27.655Z,13.90
2019-06-27T09:32:58.013Z,14.53
2019-06-27T09:35:28.352Z,13.58
2019-06-27T09:37:58.713Z,13.62
2019-06-27T09:40:29.054Z,14.33
2019-06-27T09:42:59.411Z,17.80
2019-06-27T09:45:29.794Z,14.78
2019-06-27T09:48:00.154Z,12.03
2019-06-27T09:50:30.565Z,13.00
2019-06-27T09:53:00.925Z,13.10
2019-06-27T09:55:31.278Z,12.80
2019-06-27T09:58:01.626Z,14.18
2019-06-27T10:00:32.322Z,12.28
2019-06-27T10:03:02.720Z,13.68
2019-06-27T10:05:33.079Z,12.37
2019-06-27T10:08:03.419Z,14.65
2019-06-27T10:10:33.773Z,14.28
2019-06-27T10:13:04.186Z,15.13
2019-06-27T10:15:34.556Z,13.32
2019-06-27T10:18:05.780Z,13.08
2019-06-27T10:20:36.174Z,13.17
2019-06-27T10:23:06.642Z,14.05
2019-06-27T10:25:38.252Z,13.20
2019-06-27T10:28:08.845Z,13.30
2019-06-27T10:30:39.173Z,14.47
2019-06-27T10:33:09.551Z,13.85
2019-06-27T10:35:39.887Z,13.80
2019-06-27T10:38:10.264Z,14.47
2019-06-27T10:40:40.613Z,13.20
2019-06-27T10:43:12.075Z,13.45
2019-06-27T10:45:42.630Z,13.88
2019-06-27T10:48:13.042Z,13.25
2019-06-27T10:50:45.690Z,14.47
2019-06-27T10:53:15.783Z,14.40
2019-06-27T10:55:46.130Z,13.93
2019-06-27T10:58:16.478Z,12.95
2019-06-27T11:00:47.987Z,13.28
2019-06-27T11:03:18.335Z,13.30
2019-06-27T11:05:48.725Z,12.98
2019-06-27T11:08:19.071Z,13.45
2019-06-27T11:10:49.442Z,12.85
2019-06-27T11:13:19.760Z,12.70
2019-06-27T11:15:50.090Z,13.08
2019-06-27T11:18:21.557Z,12.55
2019-06-27T11:20:51.942Z,12.50
2019-06-27T11:23:22.314Z,11.43
2019-06-27T11:25:52.645Z,11.25
2019-06-27T11:28:22.999Z,11.20
2019-06-27T11:30:53.327Z,12.58
2019-06-27T11:33:32.350Z,11.48
2019-06-27T11:35:56.608Z,12.03
2019-06-27T11:38:26.962Z,10.60
2019-06-27T11:40:57.308Z,10.63
2019-06-27T11:43:27.653Z,11.57
2019-06-27T11:45:58.058Z,10.88
2019-06-27T11:48:28.496Z,9.50
2019-06-27T11:50:58.908Z,10.48
2019-06-27T11:53:29.316Z,10.30
2019-06-27T11:55:59.644Z,9.15
2019-06-27T11:58:30.000Z,10.58
2019-06-27T12:01:00.434Z,10.78
2019-06-27T12:03:45.054Z,10.48
2019-06-27T12:06:03.972Z,9.65
2019-06-27T12:08:34.356Z,10.30
2019-06-27T12:11:04.809Z,8.90
2019-06-27T12:13:35.389Z,9.98
2019-06-27T12:16:05.819Z,9.35
2019-06-27T12:18:36.185Z,10.13
2019-06-27T12:21:06.588Z,9.08
2019-06-27T12:23:37.001Z,11.23
2019-06-27T12:26:07.332Z,8.50
2019-06-27T12:28:37.731Z,9.75
2019-06-27T12:31:20.023Z,9.03
2019-06-27T12:33:40.117Z,8.93
2019-06-27T12:36:10.500Z,8.45
2019-06-27T12:38:40.917Z,9.33
2019-06-27T12:41:11.302Z,9.38
2019-06-27T12:43:41.643Z,8.55
2019-06-27T12:46:12.023Z,6.95
2019-06-27T12:48:42.386Z,8.35
2019-06-27T12:51:13.838Z,7.75
2019-06-27T12:53:44.271Z,7.90
2019-06-27T12:56:14.680Z,7.83
2019-06-27T12:58:45.070Z,7.53
2019-06-27T13:01:15.602Z,7.80
2019-06-27T13:03:46.017Z,7.40
2019-06-27T13:06:16.367Z,8.50
2019-06-27T13:08:46.726Z,7.95
2019-06-27T13:11:17.107Z,7.40
2019-06-27T13:13:47.499Z,7.00
2019-06-27T13:16:17.932Z,6.53
2019-06-27T13:18:48.360Z,7.97
2019-06-27T13:21:18.749Z,7.47
2019-06-27T13:23:49.163Z,7.00
2019-06-27T13:26:19.456Z,7.17
2019-06-27T13:28:49.809Z,6.90
2019-06-27T13:31:21.008Z,6.22
2019-06-27T13:33:51.348Z,6.10
2019-06-27T13:36:21.733Z,5.62
2019-06-27T13:38:52.088Z,5.50
2019-06-27T13:41:22.474Z,5.25
2019-06-27T13:43:52.830Z,5.60
2019-06-27T13:46:23.708Z,5.30
2019-06-27T13:48:54.067Z,5.67
2019-06-27T13:51:24.448Z,5.37
2019-06-27T13:53:54.801Z,5.42
2019-06-27T13:56:25.184Z,4.90
2019-06-27T13:58:56.703Z,5.50
2019-06-27T14:01:27.196Z,5.22
2019-06-27T14:03:58.726Z,5.20
2019-06-27T14:06:29.093Z,4.85
2019-06-27T14:08:59.408Z,4.70
2019-06-27T14:11:29.865Z,4.30
2019-06-27T14:14:00.223Z,5.03
2019-06-27T14:16:30.597Z,4.25
2019-06-27T14:19:00.950Z,4.10
2019-06-27T14:21:31.422Z,4.05
2019-06-27T14:24:01.835Z,4.10
2019-06-27T14:26:32.261Z,4.23
2019-06-27T14:29:02.748Z,3.85
2019-06-27T14:31:33.158Z,3.77
2019-06-27T14:34:03.591Z,3.80
2019-06-27T14:36:35.035Z,3.87
2019-06-27T14:39:06.872Z,3.77
2019-06-27T14:41:37.431Z,3.70
2019-06-27T14:44:07.780Z,3.40
2019-06-27T14:46:39.131Z,3.75
2019-06-27T14:49:09.501Z,3.40
2019-06-27T14:51:39.973Z,3.35
2019-06-27T14:54:10.345Z,3.02
2019-06-27T14:56:40.755Z,3.20
2019-06-27T14:59:14.344Z,3.02
2019-06-27T15:01:43.117Z,3.00
2019-06-27T15:04:13.467Z,2.95
2019-06-27T15:06:43.838Z,3.08
2019-06-27T15:09:14.151Z,3.00
2019-06-27T15:11:44.579Z,3.00
2019-06-27T15:14:14.969Z,2.72
2019-06-27T15:16:45.335Z,2.80
2019-06-27T15:19:15.743Z,2.98
2019-06-27T15:21:46.141Z,2.70
2019-06-27T15:24:16.499Z,3.30
2019-06-27T15:26:46.855Z,2.90
2019-06-27T15:29:17.186Z,3.08
2019-06-27T15:31:47.552Z,2.52
2019-06-27T15:34:17.875Z,2.83
2019-06-27T15:36:48.225Z,2.60
2019-06-27T15:39:18.543Z,2.50
2019-06-27T15:41:48.947Z,2.58
2019-06-27T15:44:20.729Z,2.45
2019-06-27T15:46:54.101Z,2.40
2019-06-27T15:49:24.208Z,2.40
2019-06-27T15:51:54.689Z,2.60
2019-06-27T15:54:25.028Z,2.42
2019-06-27T15:56:55.420Z,2.52
2019-06-27T15:59:25.768Z,2.50
2019-06-27T16:01:57.131Z,2.65
2019-06-27T16:04:34.024Z,2.50
2019-06-27T16:07:00.460Z,3.08
2019-06-27T16:09:30.932Z,2.52
2019-06-27T16:12:01.284Z,2.45
2019-06-27T16:14:31.859Z,2.60
2019-06-27T16:17:02.150Z,2.30
2019-06-27T16:19:32.486Z,2.50
2019-06-27T16:22:03.988Z,2.60
2019-06-27T16:24:34.231Z,2.40
2019-06-27T16:27:04.592Z,2.52
2019-06-27T16:29:34.910Z,2.30
2019-06-27T16:32:05.283Z,2.40
2019-06-27T16:34:35.599Z,2.40
2019-06-27T16:37:05.967Z,2.42
2019-06-27T16:39:38.869Z,2.37
2019-06-27T16:42:08.291Z,2.30
2019-06-27T16:44:38.597Z,2.30
2019-06-27T16:47:08.940Z,2.60
2019-06-27T16:49:39.263Z,2.60
2019-06-27T16:52:09.615Z,2.52
2019-06-27T16:54:39.940Z,2.50
2019-06-27T16:57:10.297Z,2.20
2019-06-27T16:59:40.619Z,2.50
2019-06-27T17:02:11.038Z,2.40
2019-06-27T17:04:41.330Z,2.50
2019-06-27T17:07:11.690Z,2.40
2019-06-27T17:09:42.031Z,2.37
2019-06-27T17:12:12.428Z,2.60
2019-06-27T17:14:42.757Z,2.47
2019-06-27T17:17:13.193Z,2.62
2019-06-27T17:19:43.604Z,2.50
2019-06-27T17:22:13.946Z,2.80
2019-06-27T17:24:44.276Z,3.15
2019-06-27T17:27:14.642Z,2.70
2019-06-27T17:29:44.950Z,2.60
2019-06-27T17:32:15.319Z,23.27
2019-06-27T17:34:45.631Z,2.98
2019-06-27T17:37:18.540Z,21.85
2019-06-27T17:39:47.961Z,40.63
2019-06-27T17:42:18.308Z,3.20
2019-06-27T17:44:48.632Z,3.98
2019-06-27T17:47:18.986Z,2.65
2019-06-27T17:49:49.343Z,2.90
2019-06-27T17:52:19.686Z,3.02
2019-06-27T17:54:50.028Z,2.50
2019-06-27T17:57:20.441Z,2.65
2019-06-27T17:59:50.772Z,2.42
2019-06-27T18:02:21.567Z,2.50
2019-06-27T18:04:51.888Z,2.60
2019-06-27T18:07:22.245Z,2.70
2019-06-27T18:09:52.728Z,2.92
2019-06-27T18:12:23.229Z,2.95
2019-06-27T18:14:53.547Z,3.45
2019-06-27T18:17:32.861Z,2.50
2019-06-27T18:19:55.914Z,2.50
2019-06-27T18:22:26.254Z,2.45
2019-06-27T18:24:56.606Z,2.37
2019-06-27T18:27:27.643Z,2.50
2019-06-27T18:29:57.963Z,2.10
2019-06-27T18:32:28.315Z,2.02
2019-06-27T18:34:58.738Z,2.20
2019-06-27T18:37:30.265Z,2.00
2019-06-27T18:40:01.935Z,2.00
2019-06-27T18:42:33.550Z,2.22
2019-06-27T18:45:05.563Z,2.00
2019-06-27T18:47:36.008Z,2.00
2019-06-27T18:50:10.218Z,2.35
2019-06-27T18:52:40.663Z,2.10
2019-06-27T18:55:10.993Z,1.90
2019-06-27T18:57:41.380Z,1.87
2019-06-27T19:00:12.013Z,1.90
2019-06-27T19:02:42.359Z,2.00
2019-06-27T19:05:14.351Z,1.80
2019-06-27T19:07:46.264Z,2.15
2019-06-27T19:10:16.939Z,1.90
2019-06-27T19:12:47.291Z,2.02
2019-06-27T19:15:17.618Z,1.90
2019-06-27T19:17:47.976Z,2.10
2019-06-27T19:20:27.126Z,1.90
2019-06-27T19:23:03.308Z,1.70
2019-06-27T19:25:35.472Z,1.80
2019-06-27T19:28:05.860Z,1.70
2019-06-27T19:30:36.179Z,1.70
2019-06-27T19:33:07.696Z,1.43
2019-06-27T19:35:38.109Z,2.00
2019-06-27T19:38:08.465Z,1.50
2019-06-27T19:40:38.868Z,1.63
2019-06-27T19:43:09.246Z,1.80
2019-06-27T19:45:39.562Z,1.70
2019-06-27T19:48:10.874Z,1.73
2019-06-27T19:50:41.196Z,1.70
2019-06-27T19:53:12.375Z,1.60
2019-06-27T19:55:42.695Z,1.60
2019-06-27T19:58:13.279Z,1.70
2019-06-27T20:00:44.407Z,1.60
2019-06-27T20:03:14.739Z,1.70
2019-06-27T20:05:45.070Z,1.60
2019-06-27T20:08:19.731Z,1.50
2019-06-27T20:10:47.367Z,1.60
2019-06-27T20:13:17.809Z,1.50
2019-06-27T20:15:48.122Z,1.80
2019-06-27T20:18:18.479Z,1.53
2019-06-27T20:20:48.826Z,1.50
2019-06-27T20:23:19.180Z,2.40
2019-06-27T20:25:49.504Z,1.77
2019-06-27T20:28:19.888Z,1.70
2019-06-27T20:30:50.204Z,1.70
2019-06-27T20:33:20.582Z,1.50
2019-06-27T20:35:51.421Z,1.80
2019-06-27T20:38:34.253Z,1.50
2019-06-27T20:40:53.943Z,1.60
2019-06-27T20:43:24.308Z,1.80
2019-06-27T20:45:54.631Z,1.90
2019-06-27T20:48:24.979Z,1.80
2019-06-27T20:50:56.467Z,1.60
2019-06-27T20:53:26.866Z,1.63
2019-06-27T20:55:57.719Z,1.50
2019-06-27T20:58:28.649Z,1.57
2019-06-27T21:00:58.964Z,1.67
2019-06-27T21:03:29.318Z,1.67
2019-06-27T21:05:59.758Z,1.70
2019-06-27T21:08:30.502Z,1.80
2019-06-27T21:11:00.855Z,1.70
2019-06-27T21:13:31.253Z,1.70
2019-06-27T21:16:01.622Z,1.60
2019-06-27T21:18:32.168Z,2.00
2019-06-27T21:21:02.623Z,1.70
2019-06-27T21:23:32.999Z,1.80
2019-06-27T21:26:03.338Z,1.80
2019-06-27T21:28:34.595Z,1.80
2019-06-27T21:31:05.796Z,1.40
2019-06-27T21:33:36.103Z,1.80
2019-06-27T21:36:06.423Z,1.70
2019-06-27T21:38:36.829Z,1.57
2019-06-27T21:41:07.144Z,1.60
2019-06-27T21:43:37.513Z,1.57
2019-06-27T21:46:07.842Z,1.57
2019-06-27T21:48:38.186Z,1.67
2019-06-27T21:51:08.513Z,1.57
2019-06-27T21:53:38.855Z,1.57
2019-06-27T21:56:09.181Z,1.30
2019-06-27T21:58:39.539Z,1.63
2019-06-27T22:01:09.965Z,1.60
2019-06-27T22:03:40.382Z,1.63
2019-06-27T22:06:10.699Z,1.60
2019-06-27T22:08:41.048Z,1.50
2019-06-27T22:11:11.365Z,1.83
2019-06-27T22:13:41.721Z,1.70
2019-06-27T22:16:12.111Z,1.63
2019-06-27T22:18:43.478Z,1.47
2019-06-27T22:21:13.778Z,1.80
2019-06-27T22:23:44.172Z,1.67
2019-06-27T22:26:14.505Z,1.60
2019-06-27T22:28:44.880Z,1.67
2019-06-27T22:31:15.251Z,1.70
2019-06-27T22:33:45.590Z,1.50
2019-06-27T22:36:15.918Z,1.60
2019-06-27T22:39:04.241Z,1.63
2019-06-27T22:41:52.995Z,1.77
2019-06-27T22:44:41.340Z,1.70
2019-06-27T22:47:29.472Z,1.80
2019-06-27T22:49:59.595Z,1.80
2019-06-27T22:52:47.801Z,1.53
2019-06-27T22:55:21.488Z,1.80
2019-06-27T22:57:51.841Z,1.80
2019-06-27T23:00:22.391Z,1.63
2019-06-27T23:02:52.723Z,1.80
2019-06-27T23:05:23.114Z,1.90
2019-06-27T23:07:53.406Z,1.80
2019-06-27T23:10:23.760Z,1.70
2019-06-27T23:12:54.181Z,1.83
2019-06-27T23:15:24.543Z,1.80
2019-06-27T23:17:54.883Z,1.80
2019-06-27T23:20:25.196Z,1.90
2019-06-27T23:22:55.549Z,1.70
2019-06-27T23:25:25.857Z,1.70
2019-06-27T23:27:56.255Z,1.77
2019-06-27T23:30:26.554Z,1.80
2019-06-27T23:32:56.992Z,1.80
2019-06-27T23:35:27.621Z,1.60
2019-06-27T23:37:57.974Z,2.00
2019-06-27T23:40:28.300Z,1.70
2019-06-27T23:42:58.672Z,2.00
2019-06-27T23:45:28.975Z,1.90
2019-06-27T23:47:59.328Z,1.93
2019-06-27T23:50:29.642Z,1.93
2019-06-27T23:52:59.979Z,1.80
2019-06-27T23:55:30.354Z,2.00
2019-06-27T23:58:00.636Z,1.80
